sensor_id;sensor_type;location;lat;lon;timestamp;temperature;humidity
24800;DHT22;12897;50.812;4.430;2023-12-29T00:02:12;11.30;99.90
24800;DHT22;12897;50.812;4.430;2023-12-29T00:04:39;11.20;99.90
24800;DHT22;12897;50.812;4.430;2023-12-29T00:07:07;11.30;99.90
24800;DHT22;12897;50.812;4.430;2023-12-29T00:09:34;11.30;99.90
24800;DHT22;12897;50.812;4.430;2023-12-29T00:12:04;11.30;99.90
24800;DHT22;12897;50.812;4.430;2023-12-29T00:14:31;11.30;99.90
24800;DHT22;12897;50.812;4.430;2023-12-29T00:16:59;11.30;99.90
24800;DHT22;12897;50.812;4.430;2023-12-29T00:19:27;11.20;99.90
24800;DHT22;12897;50.812;4.430;2023-12-29T00:21:55;11.20;99.90
24800;DHT22;12897;50.812;4.430;2023-12-29T00:24:22;11.20;99.90
24800;DHT22;12897;50.812;4.430;2023-12-29T00:26:50;11.20;99.90
24800;DHT22;12897;50.812;4.430;2023-12-29T00:29:17;11.20;99.90
24800;DHT22;12897;50.812;4.430;2023-12-29T00:31:45;11.20;99.90
24800;DHT22;12897;50.812;4.430;2023-12-29T00:34:13;11.20;99.90
24800;DHT22;12897;50.812;4.430;2023-12-29T00:36:40;11.20;99.90
24800;DHT22;12897;50.812;4.430;2023-12-29T00:39:08;11.20;99.90
24800;DHT22;12897;50.812;4.430;2023-12-29T00:41:36;11.20;99.90
24800;DHT22;12897;50.812;4.430;2023-12-29T00:44:07;11.30;99.90
24800;DHT22;12897;50.812;4.430;2023-12-29T00:46:35;11.20;99.90
24800;DHT22;12897;50.812;4.430;2023-12-29T00:49:04;11.20;99.90
24800;DHT22;12897;50.812;4.430;2023-12-29T00:51:32;11.20;99.90
24800;DHT22;12897;50.812;4.430;2023-12-29T00:53:59;11.20;99.90
24800;DHT22;12897;50.812;4.430;2023-12-29T00:56:27;11.20;99.90
24800;DHT22;12897;50.812;4.430;2023-12-29T00:58:54;11.10;99.90
24800;DHT22;12897;50.812;4.430;2023-12-29T01:01:22;11.10;99.90
24800;DHT22;12897;50.812;4.430;2023-12-29T01:03:49;11.10;99.90
24800;DHT22;12897;50.812;4.430;2023-12-29T01:06:19;11.20;99.90
24800;DHT22;12897;50.812;4.430;2023-12-29T01:08:48;11.20;99.90
24800;DHT22;12897;50.812;4.430;2023-12-29T01:11:23;11.30;99.90
24800;DHT22;12897;50.812;4.430;2023-12-29T01:13:50;11.30;99.90
24800;DHT22;12897;50.812;4.430;2023-12-29T01:16:18;11.30;99.90
24800;DHT22;12897;50.812;4.430;2023-12-29T01:18:46;11.30;99.90
24800;DHT22;12897;50.812;4.430;2023-12-29T01:21:13;11.20;99.90
24800;DHT22;12897;50.812;4.430;2023-12-29T01:23:41;11.20;99.90
24800;DHT22;12897;50.812;4.430;2023-12-29T01:26:09;11.30;99.90
24800;DHT22;12897;50.812;4.430;2023-12-29T01:28:36;11.40;99.90
24800;DHT22;12897;50.812;4.430;2023-12-29T01:31:04;11.40;99.90
24800;DHT22;12897;50.812;4.430;2023-12-29T01:33:31;11.40;99.90
24800;DHT22;12897;50.812;4.430;2023-12-29T01:35:59;11.40;99.90
24800;DHT22;12897;50.812;4.430;2023-12-29T01:38:26;11.40;99.90
24800;DHT22;12897;50.812;4.430;2023-12-29T01:40:54;11.30;99.90
24800;DHT22;12897;50.812;4.430;2023-12-29T01:43:22;11.40;99.90
24800;DHT22;12897;50.812;4.430;2023-12-29T01:45:49;11.40;99.90
24800;DHT22;12897;50.812;4.430;2023-12-29T01:48:17;11.40;99.90
24800;DHT22;12897;50.812;4.430;2023-12-29T01:50:45;11.40;99.90
24800;DHT22;12897;50.812;4.430;2023-12-29T01:53:15;11.30;99.90
24800;DHT22;12897;50.812;4.430;2023-12-29T01:55:46;11.30;99.90
24800;DHT22;12897;50.812;4.430;2023-12-29T01:58:14;11.30;99.90
24800;DHT22;12897;50.812;4.430;2023-12-29T02:00:42;11.30;99.90
24800;DHT22;12897;50.812;4.430;2023-12-29T02:03:11;11.30;99.90
24800;DHT22;12897;50.812;4.430;2023-12-29T02:05:40;11.30;99.90
24800;DHT22;12897;50.812;4.430;2023-12-29T02:08:08;11.20;99.90
24800;DHT22;12897;50.812;4.430;2023-12-29T02:10:38;11.20;99.90
24800;DHT22;12897;50.812;4.430;2023-12-29T02:13:05;11.30;99.90
24800;DHT22;12897;50.812;4.430;2023-12-29T02:15:33;11.20;99.90
24800;DHT22;12897;50.812;4.430;2023-12-29T02:18:02;11.30;99.90
24800;DHT22;12897;50.812;4.430;2023-12-29T02:20:31;11.30;99.90
24800;DHT22;12897;50.812;4.430;2023-12-29T02:22:59;11.30;99.90
24800;DHT22;12897;50.812;4.430;2023-12-29T02:25:27;11.30;99.90
24800;DHT22;12897;50.812;4.430;2023-12-29T02:28:04;11.40;99.90
24800;DHT22;12897;50.812;4.430;2023-12-29T02:30:46;11.40;99.90
24800;DHT22;12897;50.812;4.430;2023-12-29T02:33:18;11.50;99.90
24800;DHT22;12897;50.812;4.430;2023-12-29T02:35:43;11.40;99.90
24800;DHT22;12897;50.812;4.430;2023-12-29T02:38:13;11.40;99.90
24800;DHT22;12897;50.812;4.430;2023-12-29T02:40:41;11.40;99.90
24800;DHT22;12897;50.812;4.430;2023-12-29T02:43:09;11.40;99.90
24800;DHT22;12897;50.812;4.430;2023-12-29T02:45:37;11.30;99.90
24800;DHT22;12897;50.812;4.430;2023-12-29T02:48:07;11.30;99.90
24800;DHT22;12897;50.812;4.430;2023-12-29T02:50:41;11.30;99.90
24800;DHT22;12897;50.812;4.430;2023-12-29T02:53:09;11.30;99.90
24800;DHT22;12897;50.812;4.430;2023-12-29T02:55:36;11.20;99.90
24800;DHT22;12897;50.812;4.430;2023-12-29T02:58:04;11.20;99.90
24800;DHT22;12897;50.812;4.430;2023-12-29T03:00:31;11.20;99.90
24800;DHT22;12897;50.812;4.430;2023-12-29T03:02:59;11.20;99.90
24800;DHT22;12897;50.812;4.430;2023-12-29T03:05:27;11.10;99.90
24800;DHT22;12897;50.812;4.430;2023-12-29T03:07:55;11.10;99.90
24800;DHT22;12897;50.812;4.430;2023-12-29T03:10:24;11.20;99.90
24800;DHT22;12897;50.812;4.430;2023-12-29T03:12:51;11.20;99.90
24800;DHT22;12897;50.812;4.430;2023-12-29T03:15:19;11.20;99.90
24800;DHT22;12897;50.812;4.430;2023-12-29T03:17:47;11.20;99.90
24800;DHT22;12897;50.812;4.430;2023-12-29T03:20:14;11.20;99.90
24800;DHT22;12897;50.812;4.430;2023-12-29T03:22:42;11.20;99.90
24800;DHT22;12897;50.812;4.430;2023-12-29T03:25:10;11.20;99.90
24800;DHT22;12897;50.812;4.430;2023-12-29T03:27:37;11.10;99.90
24800;DHT22;12897;50.812;4.430;2023-12-29T03:30:05;11.10;99.90
24800;DHT22;12897;50.812;4.430;2023-12-29T03:32:33;11.10;99.90
24800;DHT22;12897;50.812;4.430;2023-12-29T03:35:13;11.10;99.90
24800;DHT22;12897;50.812;4.430;2023-12-29T03:37:41;11.10;99.90
24800;DHT22;12897;50.812;4.430;2023-12-29T03:40:09;11.00;99.90
24800;DHT22;12897;50.812;4.430;2023-12-29T03:42:37;10.90;99.90
24800;DHT22;12897;50.812;4.430;2023-12-29T03:45:05;10.90;99.90
24800;DHT22;12897;50.812;4.430;2023-12-29T03:47:33;11.00;99.90
24800;DHT22;12897;50.812;4.430;2023-12-29T03:50:02;11.00;99.90
24800;DHT22;12897;50.812;4.430;2023-12-29T03:52:30;10.90;99.90
24800;DHT22;12897;50.812;4.430;2023-12-29T03:54:57;10.90;99.90
24800;DHT22;12897;50.812;4.430;2023-12-29T03:57:26;10.90;99.90
24800;DHT22;12897;50.812;4.430;2023-12-29T03:59:53;11.00;99.90
24800;DHT22;12897;50.812;4.430;2023-12-29T04:02:21;10.90;99.90
24800;DHT22;12897;50.812;4.430;2023-12-29T04:04:49;10.90;99.90
24800;DHT22;12897;50.812;4.430;2023-12-29T04:07:16;10.80;99.90
24800;DHT22;12897;50.812;4.430;2023-12-29T04:09:44;10.80;99.90
24800;DHT22;12897;50.812;4.430;2023-12-29T04:12:11;10.70;99.90
24800;DHT22;12897;50.812;4.430;2023-12-29T04:14:39;10.70;99.90
24800;DHT22;12897;50.812;4.430;2023-12-29T04:17:06;10.80;99.90
24800;DHT22;12897;50.812;4.430;2023-12-29T04:19:35;10.70;99.90
24800;DHT22;12897;50.812;4.430;2023-12-29T04:22:09;10.70;99.90
24800;DHT22;12897;50.812;4.430;2023-12-29T04:24:42;10.60;99.90
24800;DHT22;12897;50.812;4.430;2023-12-29T04:27:16;10.60;99.90
24800;DHT22;12897;50.812;4.430;2023-12-29T04:29:39;10.60;99.90
24800;DHT22;12897;50.812;4.430;2023-12-29T04:32:07;10.60;99.90
24800;DHT22;12897;50.812;4.430;2023-12-29T04:34:34;10.60;99.90
24800;DHT22;12897;50.812;4.430;2023-12-29T04:37:02;10.70;99.90
24800;DHT22;12897;50.812;4.430;2023-12-29T04:39:30;10.70;99.90
24800;DHT22;12897;50.812;4.430;2023-12-29T04:41:57;10.60;99.90
24800;DHT22;12897;50.812;4.430;2023-12-29T04:44:25;10.70;99.90
24800;DHT22;12897;50.812;4.430;2023-12-29T04:46:53;10.70;99.90
24800;DHT22;12897;50.812;4.430;2023-12-29T04:49:20;10.60;99.90
24800;DHT22;12897;50.812;4.430;2023-12-29T04:51:48;10.70;99.90
24800;DHT22;12897;50.812;4.430;2023-12-29T04:54:16;10.70;99.90
24800;DHT22;12897;50.812;4.430;2023-12-29T04:56:43;10.70;99.90
24800;DHT22;12897;50.812;4.430;2023-12-29T04:59:11;10.60;99.90
24800;DHT22;12897;50.812;4.430;2023-12-29T05:01:38;10.60;99.90
24800;DHT22;12897;50.812;4.430;2023-12-29T05:04:06;10.60;99.90
24800;DHT22;12897;50.812;4.430;2023-12-29T05:06:33;10.70;99.90
24800;DHT22;12897;50.812;4.430;2023-12-29T05:09:08;10.70;99.90
24800;DHT22;12897;50.812;4.430;2023-12-29T05:11:35;10.80;99.90
24800;DHT22;12897;50.812;4.430;2023-12-29T05:14:03;10.80;99.90
24800;DHT22;12897;50.812;4.430;2023-12-29T05:16:31;10.70;99.90
24800;DHT22;12897;50.812;4.430;2023-12-29T05:18:58;10.80;99.90
24800;DHT22;12897;50.812;4.430;2023-12-29T05:21:26;10.80;99.90
24800;DHT22;12897;50.812;4.430;2023-12-29T05:23:54;10.90;99.90
24800;DHT22;12897;50.812;4.430;2023-12-29T05:26:22;10.90;99.90
24800;DHT22;12897;50.812;4.430;2023-12-29T05:28:49;11.00;99.90
24800;DHT22;12897;50.812;4.430;2023-12-29T05:31:18;10.90;99.90
24800;DHT22;12897;50.812;4.430;2023-12-29T05:33:45;10.90;99.90
24800;DHT22;12897;50.812;4.430;2023-12-29T05:36:13;11.00;99.90
24800;DHT22;12897;50.812;4.430;2023-12-29T05:38:42;10.90;99.90
24800;DHT22;12897;50.812;4.430;2023-12-29T05:41:12;10.80;99.90
24800;DHT22;12897;50.812;4.430;2023-12-29T05:43:40;10.80;99.90
24800;DHT22;12897;50.812;4.430;2023-12-29T05:46:11;10.80;99.90
24800;DHT22;12897;50.812;4.430;2023-12-29T05:48:42;10.80;99.90
24800;DHT22;12897;50.812;4.430;2023-12-29T05:51:10;10.90;99.90
24800;DHT22;12897;50.812;4.430;2023-12-29T05:53:39;11.00;99.90
24800;DHT22;12897;50.812;4.430;2023-12-29T05:56:15;10.90;99.90
24800;DHT22;12897;50.812;4.430;2023-12-29T05:58:51;10.90;99.90
24800;DHT22;12897;50.812;4.430;2023-12-29T06:01:20;10.90;99.90
24800;DHT22;12897;50.812;4.430;2023-12-29T06:03:47;10.90;99.90
24800;DHT22;12897;50.812;4.430;2023-12-29T06:06:15;10.90;99.90
24800;DHT22;12897;50.812;4.430;2023-12-29T06:08:43;10.80;99.90
24800;DHT22;12897;50.812;4.430;2023-12-29T06:11:15;10.70;99.90
24800;DHT22;12897;50.812;4.430;2023-12-29T06:13:43;10.70;99.90
24800;DHT22;12897;50.812;4.430;2023-12-29T06:16:18;10.40;99.90
24800;DHT22;12897;50.812;4.430;2023-12-29T06:18:47;10.30;99.90
24800;DHT22;12897;50.812;4.430;2023-12-29T06:21:14;10.30;99.90
24800;DHT22;12897;50.812;4.430;2023-12-29T06:23:42;10.20;99.90
24800;DHT22;12897;50.812;4.430;2023-12-29T06:26:17;10.20;99.90
24800;DHT22;12897;50.812;4.430;2023-12-29T06:28:45;10.10;99.90
24800;DHT22;12897;50.812;4.430;2023-12-29T06:31:13;10.10;99.90
24800;DHT22;12897;50.812;4.430;2023-12-29T06:33:45;10.10;99.90
24800;DHT22;12897;50.812;4.430;2023-12-29T06:36:14;10.00;99.90
24800;DHT22;12897;50.812;4.430;2023-12-29T06:38:41;10.00;99.90
24800;DHT22;12897;50.812;4.430;2023-12-29T06:41:11;10.00;99.90
24800;DHT22;12897;50.812;4.430;2023-12-29T06:43:39;10.10;99.90
24800;DHT22;12897;50.812;4.430;2023-12-29T06:46:09;10.10;99.90
24800;DHT22;12897;50.812;4.430;2023-12-29T06:48:38;10.10;99.90
24800;DHT22;12897;50.812;4.430;2023-12-29T06:51:06;10.10;99.90
24800;DHT22;12897;50.812;4.430;2023-12-29T06:53:36;10.20;99.90
24800;DHT22;12897;50.812;4.430;2023-12-29T06:56:19;10.10;99.90
24800;DHT22;12897;50.812;4.430;2023-12-29T06:58:56;10.10;99.90
24800;DHT22;12897;50.812;4.430;2023-12-29T07:01:26;10.00;99.90
24800;DHT22;12897;50.812;4.430;2023-12-29T07:04:11;10.00;99.90
24800;DHT22;12897;50.812;4.430;2023-12-29T07:09:40;10.00;99.90
24800;DHT22;12897;50.812;4.430;2023-12-29T07:12:10;10.10;99.90
24800;DHT22;12897;50.812;4.430;2023-12-29T07:14:38;10.10;99.90
24800;DHT22;12897;50.812;4.430;2023-12-29T07:17:07;10.10;99.90
24800;DHT22;12897;50.812;4.430;2023-12-29T07:19:47;10.00;99.90
24800;DHT22;12897;50.812;4.430;2023-12-29T07:22:28;10.00;99.90
24800;DHT22;12897;50.812;4.430;2023-12-29T07:24:57;10.00;99.90
24800;DHT22;12897;50.812;4.430;2023-12-29T07:27:29;10.00;99.90
24800;DHT22;12897;50.812;4.430;2023-12-29T07:29:58;10.00;99.90
24800;DHT22;12897;50.812;4.430;2023-12-29T07:32:25;10.00;99.90
24800;DHT22;12897;50.812;4.430;2023-12-29T07:34:53;10.10;99.90
24800;DHT22;12897;50.812;4.430;2023-12-29T07:37:26;10.10;99.90
24800;DHT22;12897;50.812;4.430;2023-12-29T07:39:54;10.10;99.90
24800;DHT22;12897;50.812;4.430;2023-12-29T07:42:21;10.10;99.90
24800;DHT22;12897;50.812;4.430;2023-12-29T07:44:49;10.10;99.90
24800;DHT22;12897;50.812;4.430;2023-12-29T07:47:21;10.10;99.90
24800;DHT22;12897;50.812;4.430;2023-12-29T07:49:47;10.10;99.90
24800;DHT22;12897;50.812;4.430;2023-12-29T07:52:14;10.10;99.90
24800;DHT22;12897;50.812;4.430;2023-12-29T07:54:42;10.10;99.90
24800;DHT22;12897;50.812;4.430;2023-12-29T07:57:09;10.10;99.90
24800;DHT22;12897;50.812;4.430;2023-12-29T07:59:37;10.20;99.90
24800;DHT22;12897;50.812;4.430;2023-12-29T08:02:05;10.20;99.90
24800;DHT22;12897;50.812;4.430;2023-12-29T08:04:34;10.20;99.90
24800;DHT22;12897;50.812;4.430;2023-12-29T08:07:02;10.30;99.90
24800;DHT22;12897;50.812;4.430;2023-12-29T08:09:33;10.30;99.90
24800;DHT22;12897;50.812;4.430;2023-12-29T08:12:01;10.40;99.90
24800;DHT22;12897;50.812;4.430;2023-12-29T08:14:34;10.30;99.90
24800;DHT22;12897;50.812;4.430;2023-12-29T08:17:04;10.30;99.90
24800;DHT22;12897;50.812;4.430;2023-12-29T08:19:33;10.30;99.90
24800;DHT22;12897;50.812;4.430;2023-12-29T08:22:02;10.20;99.90
24800;DHT22;12897;50.812;4.430;2023-12-29T08:24:29;10.20;99.90
24800;DHT22;12897;50.812;4.430;2023-12-29T08:26:57;10.30;99.90
24800;DHT22;12897;50.812;4.430;2023-12-29T08:29:26;10.20;99.90
24800;DHT22;12897;50.812;4.430;2023-12-29T08:31:54;10.20;99.90
24800;DHT22;12897;50.812;4.430;2023-12-29T08:34:21;10.30;99.90
24800;DHT22;12897;50.812;4.430;2023-12-29T08:36:50;10.30;99.90
24800;DHT22;12897;50.812;4.430;2023-12-29T08:39:17;10.40;99.90
24800;DHT22;12897;50.812;4.430;2023-12-29T08:41:47;10.30;99.90
24800;DHT22;12897;50.812;4.430;2023-12-29T08:44:16;10.40;99.90
24800;DHT22;12897;50.812;4.430;2023-12-29T08:46:44;10.40;99.90
24800;DHT22;12897;50.812;4.430;2023-12-29T08:49:12;10.40;99.90
24800;DHT22;12897;50.812;4.430;2023-12-29T08:51:39;10.40;99.90
24800;DHT22;12897;50.812;4.430;2023-12-29T08:54:07;10.50;99.90
24800;DHT22;12897;50.812;4.430;2023-12-29T08:56:38;10.60;99.90
24800;DHT22;12897;50.812;4.430;2023-12-29T08:59:06;10.50;99.90
24800;DHT22;12897;50.812;4.430;2023-12-29T09:01:35;10.50;99.90
24800;DHT22;12897;50.812;4.430;2023-12-29T09:04:03;10.50;99.90
24800;DHT22;12897;50.812;4.430;2023-12-29T09:06:37;10.60;99.90
24800;DHT22;12897;50.812;4.430;2023-12-29T09:09:04;10.60;99.90
24800;DHT22;12897;50.812;4.430;2023-12-29T09:11:33;10.60;99.90
24800;DHT22;12897;50.812;4.430;2023-12-29T09:14:01;10.70;99.90
24800;DHT22;12897;50.812;4.430;2023-12-29T09:16:28;10.70;99.90
24800;DHT22;12897;50.812;4.430;2023-12-29T09:18:57;10.70;99.90
24800;DHT22;12897;50.812;4.430;2023-12-29T09:21:26;10.70;99.90
24800;DHT22;12897;50.812;4.430;2023-12-29T09:23:54;10.70;99.90
24800;DHT22;12897;50.812;4.430;2023-12-29T09:26:21;10.70;99.90
24800;DHT22;12897;50.812;4.430;2023-12-29T09:28:49;10.80;99.90
24800;DHT22;12897;50.812;4.430;2023-12-29T09:31:16;10.80;99.90
24800;DHT22;12897;50.812;4.430;2023-12-29T09:33:44;10.80;99.90
24800;DHT22;12897;50.812;4.430;2023-12-29T09:36:14;10.90;99.90
24800;DHT22;12897;50.812;4.430;2023-12-29T09:38:41;10.90;99.90
24800;DHT22;12897;50.812;4.430;2023-12-29T09:41:13;11.00;99.90
24800;DHT22;12897;50.812;4.430;2023-12-29T09:43:40;11.00;99.90
24800;DHT22;12897;50.812;4.430;2023-12-29T09:46:09;11.00;99.90
24800;DHT22;12897;50.812;4.430;2023-12-29T09:48:38;11.10;99.90
24800;DHT22;12897;50.812;4.430;2023-12-29T09:51:15;11.10;99.90
24800;DHT22;12897;50.812;4.430;2023-12-29T09:53:43;11.10;99.90
24800;DHT22;12897;50.812;4.430;2023-12-29T09:56:11;11.10;99.90
24800;DHT22;12897;50.812;4.430;2023-12-29T09:58:41;11.10;99.90
24800;DHT22;12897;50.812;4.430;2023-12-29T10:01:08;11.20;99.90
24800;DHT22;12897;50.812;4.430;2023-12-29T10:03:36;11.30;99.90
24800;DHT22;12897;50.812;4.430;2023-12-29T10:06:06;11.20;99.90
24800;DHT22;12897;50.812;4.430;2023-12-29T10:08:36;11.20;99.90
24800;DHT22;12897;50.812;4.430;2023-12-29T10:11:06;11.10;99.90
24800;DHT22;12897;50.812;4.430;2023-12-29T10:13:35;11.20;99.90
24800;DHT22;12897;50.812;4.430;2023-12-29T10:16:15;11.20;99.90
24800;DHT22;12897;50.812;4.430;2023-12-29T10:21:40;11.30;99.90
24800;DHT22;12897;50.812;4.430;2023-12-29T10:24:12;11.50;99.90
24800;DHT22;12897;50.812;4.430;2023-12-29T10:26:40;11.50;99.90
24800;DHT22;12897;50.812;4.430;2023-12-29T10:29:15;11.50;99.90
24800;DHT22;12897;50.812;4.430;2023-12-29T10:31:39;11.60;99.90
24800;DHT22;12897;50.812;4.430;2023-12-29T10:34:26;11.60;99.90
24800;DHT22;12897;50.812;4.430;2023-12-29T10:37:01;11.70;99.90
24800;DHT22;12897;50.812;4.430;2023-12-29T10:39:31;11.70;99.90
24800;DHT22;12897;50.812;4.430;2023-12-29T10:42:05;11.60;99.90
24800;DHT22;12897;50.812;4.430;2023-12-29T10:44:34;11.50;99.90
24800;DHT22;12897;50.812;4.430;2023-12-29T10:47:12;11.50;99.90
24800;DHT22;12897;50.812;4.430;2023-12-29T10:49:41;11.40;99.90
24800;DHT22;12897;50.812;4.430;2023-12-29T10:52:14;11.30;99.90
24800;DHT22;12897;50.812;4.430;2023-12-29T10:54:43;11.30;99.90
24800;DHT22;12897;50.812;4.430;2023-12-29T10:57:12;11.30;99.90
24800;DHT22;12897;50.812;4.430;2023-12-29T10:59:40;11.40;99.90
24800;DHT22;12897;50.812;4.430;2023-12-29T11:02:13;11.40;99.90
24800;DHT22;12897;50.812;4.430;2023-12-29T11:04:44;11.40;99.90
24800;DHT22;12897;50.812;4.430;2023-12-29T11:07:13;11.40;99.90
24800;DHT22;12897;50.812;4.430;2023-12-29T11:09:41;11.40;99.90
24800;DHT22;12897;50.812;4.430;2023-12-29T11:12:10;11.60;99.90
24800;DHT22;12897;50.812;4.430;2023-12-29T11:14:41;11.60;99.90
24800;DHT22;12897;50.812;4.430;2023-12-29T11:17:11;11.80;99.90
24800;DHT22;12897;50.812;4.430;2023-12-29T11:19:40;11.80;99.90
24800;DHT22;12897;50.812;4.430;2023-12-29T11:22:09;11.90;99.90
24800;DHT22;12897;50.812;4.430;2023-12-29T11:24:37;11.90;99.90
24800;DHT22;12897;50.812;4.430;2023-12-29T11:27:06;11.90;99.90
24800;DHT22;12897;50.812;4.430;2023-12-29T11:29:35;11.90;99.90
24800;DHT22;12897;50.812;4.430;2023-12-29T11:32:04;12.00;99.90
24800;DHT22;12897;50.812;4.430;2023-12-29T11:34:35;12.10;99.90
24800;DHT22;12897;50.812;4.430;2023-12-29T11:37:15;12.00;99.90
24800;DHT22;12897;50.812;4.430;2023-12-29T11:39:48;12.00;99.90
24800;DHT22;12897;50.812;4.430;2023-12-29T11:42:17;11.80;99.90
24800;DHT22;12897;50.812;4.430;2023-12-29T11:44:44;11.90;99.90
24800;DHT22;12897;50.812;4.430;2023-12-29T11:47:37;11.70;99.90
24800;DHT22;12897;50.812;4.430;2023-12-29T11:50:05;11.60;99.90
24800;DHT22;12897;50.812;4.430;2023-12-29T11:52:37;11.60;99.90
24800;DHT22;12897;50.812;4.430;2023-12-29T11:55:12;11.60;99.90
24800;DHT22;12897;50.812;4.430;2023-12-29T11:57:41;11.60;99.90
24800;DHT22;12897;50.812;4.430;2023-12-29T12:00:09;11.60;99.90
24800;DHT22;12897;50.812;4.430;2023-12-29T12:02:38;11.50;99.90
24800;DHT22;12897;50.812;4.430;2023-12-29T12:05:12;11.40;99.90
24800;DHT22;12897;50.812;4.430;2023-12-29T12:10:29;11.40;99.90
24800;DHT22;12897;50.812;4.430;2023-12-29T12:13:00;11.30;99.90
24800;DHT22;12897;50.812;4.430;2023-12-29T12:17:59;11.10;99.90
24800;DHT22;12897;50.812;4.430;2023-12-29T12:20:27;11.00;99.90
24800;DHT22;12897;50.812;4.430;2023-12-29T12:23:00;10.90;99.90
24800;DHT22;12897;50.812;4.430;2023-12-29T12:25:30;11.00;99.90
24800;DHT22;12897;50.812;4.430;2023-12-29T12:27:59;11.10;99.90
24800;DHT22;12897;50.812;4.430;2023-12-29T12:30:27;11.20;99.90
24800;DHT22;12897;50.812;4.430;2023-12-29T12:32:59;11.20;99.90
24800;DHT22;12897;50.812;4.430;2023-12-29T12:35:27;11.10;99.90
24800;DHT22;12897;50.812;4.430;2023-12-29T12:38:16;11.10;99.90
24800;DHT22;12897;50.812;4.430;2023-12-29T12:40:40;11.00;99.90
24800;DHT22;12897;50.812;4.430;2023-12-29T12:43:08;11.00;99.90
24800;DHT22;12897;50.812;4.430;2023-12-29T12:45:41;11.00;99.90
24800;DHT22;12897;50.812;4.430;2023-12-29T12:48:21;10.90;99.90
24800;DHT22;12897;50.812;4.430;2023-12-29T12:50:49;11.00;99.90
24800;DHT22;12897;50.812;4.430;2023-12-29T12:53:17;11.00;99.90
24800;DHT22;12897;50.812;4.430;2023-12-29T12:55:50;11.00;99.90
24800;DHT22;12897;50.812;4.430;2023-12-29T12:58:18;11.00;99.90
24800;DHT22;12897;50.812;4.430;2023-12-29T13:00:49;11.00;99.90
24800;DHT22;12897;50.812;4.430;2023-12-29T13:03:17;11.00;99.90
24800;DHT22;12897;50.812;4.430;2023-12-29T13:05:45;11.00;99.90
24800;DHT22;12897;50.812;4.430;2023-12-29T13:08:17;11.00;99.90
24800;DHT22;12897;50.812;4.430;2023-12-29T13:10:44;11.10;99.90
24800;DHT22;12897;50.812;4.430;2023-12-29T13:13:12;11.20;99.90
24800;DHT22;12897;50.812;4.430;2023-12-29T13:15:50;11.20;99.90
24800;DHT22;12897;50.812;4.430;2023-12-29T13:18:28;11.30;99.90
24800;DHT22;12897;50.812;4.430;2023-12-29T13:20:49;11.20;99.90
24800;DHT22;12897;50.812;4.430;2023-12-29T13:23:17;11.30;99.90
24800;DHT22;12897;50.812;4.430;2023-12-29T13:25:47;11.40;99.90
24800;DHT22;12897;50.812;4.430;2023-12-29T13:28:16;11.40;99.90
24800;DHT22;12897;50.812;4.430;2023-12-29T13:30:44;11.40;99.90
24800;DHT22;12897;50.812;4.430;2023-12-29T13:33:19;11.50;99.90
24800;DHT22;12897;50.812;4.430;2023-12-29T13:35:47;11.50;99.90
24800;DHT22;12897;50.812;4.430;2023-12-29T13:38:25;11.60;99.90
24800;DHT22;12897;50.812;4.430;2023-12-29T13:41:08;11.60;99.90
24800;DHT22;12897;50.812;4.430;2023-12-29T13:43:33;11.50;99.90
24800;DHT22;12897;50.812;4.430;2023-12-29T13:46:02;11.40;99.90
24800;DHT22;12897;50.812;4.430;2023-12-29T13:48:32;11.40;99.90
24800;DHT22;12897;50.812;4.430;2023-12-29T13:51:00;11.30;99.90
24800;DHT22;12897;50.812;4.430;2023-12-29T13:53:28;11.30;99.90
24800;DHT22;12897;50.812;4.430;2023-12-29T13:56:10;11.30;99.90
24800;DHT22;12897;50.812;4.430;2023-12-29T13:58:38;11.30;99.90
24800;DHT22;12897;50.812;4.430;2023-12-29T14:01:09;11.20;99.90
24800;DHT22;12897;50.812;4.430;2023-12-29T14:03:41;11.10;99.90
24800;DHT22;12897;50.812;4.430;2023-12-29T14:06:08;11.10;99.90
24800;DHT22;12897;50.812;4.430;2023-12-29T14:08:46;11.10;99.90
24800;DHT22;12897;50.812;4.430;2023-12-29T14:11:14;11.10;99.90
24800;DHT22;12897;50.812;4.430;2023-12-29T14:13:46;11.10;99.90
24800;DHT22;12897;50.812;4.430;2023-12-29T14:16:17;11.20;99.90
24800;DHT22;12897;50.812;4.430;2023-12-29T14:18:52;11.10;99.90
24800;DHT22;12897;50.812;4.430;2023-12-29T14:21:30;11.20;99.90
24800;DHT22;12897;50.812;4.430;2023-12-29T14:24:12;11.20;99.90
24800;DHT22;12897;50.812;4.430;2023-12-29T14:29:28;11.20;99.90
24800;DHT22;12897;50.812;4.430;2023-12-29T14:31:57;11.10;99.90
24800;DHT22;12897;50.812;4.430;2023-12-29T14:34:26;11.00;99.90
24800;DHT22;12897;50.812;4.430;2023-12-29T14:36:54;11.10;99.90
24800;DHT22;12897;50.812;4.430;2023-12-29T14:39:22;11.20;99.90
24800;DHT22;12897;50.812;4.430;2023-12-29T14:41:50;11.20;99.90
24800;DHT22;12897;50.812;4.430;2023-12-29T14:44:19;11.20;99.90
24800;DHT22;12897;50.812;4.430;2023-12-29T14:46:47;11.20;99.90
24800;DHT22;12897;50.812;4.430;2023-12-29T14:49:15;11.20;99.90
24800;DHT22;12897;50.812;4.430;2023-12-29T14:51:43;11.20;99.90
24800;DHT22;12897;50.812;4.430;2023-12-29T14:54:10;11.10;99.90
24800;DHT22;12897;50.812;4.430;2023-12-29T14:56:38;11.00;99.90
24800;DHT22;12897;50.812;4.430;2023-12-29T14:59:05;11.00;99.90
24800;DHT22;12897;50.812;4.430;2023-12-29T15:01:33;10.90;99.90
24800;DHT22;12897;50.812;4.430;2023-12-29T15:04:00;10.90;99.90
24800;DHT22;12897;50.812;4.430;2023-12-29T15:06:28;11.00;99.90
24800;DHT22;12897;50.812;4.430;2023-12-29T15:08:56;11.00;99.90
24800;DHT22;12897;50.812;4.430;2023-12-29T15:11:24;10.90;99.90
24800;DHT22;12897;50.812;4.430;2023-12-29T15:13:51;10.90;99.90
24800;DHT22;12897;50.812;4.430;2023-12-29T15:16:19;11.00;99.90
24800;DHT22;12897;50.812;4.430;2023-12-29T15:18:46;11.00;99.90
24800;DHT22;12897;50.812;4.430;2023-12-29T15:21:14;11.10;99.90
24800;DHT22;12897;50.812;4.430;2023-12-29T15:23:41;11.00;99.90
24800;DHT22;12897;50.812;4.430;2023-12-29T15:26:09;11.00;99.90
24800;DHT22;12897;50.812;4.430;2023-12-29T15:28:38;11.10;99.90
24800;DHT22;12897;50.812;4.430;2023-12-29T15:31:06;11.10;99.90
24800;DHT22;12897;50.812;4.430;2023-12-29T15:33:33;11.10;99.90
24800;DHT22;12897;50.812;4.430;2023-12-29T15:36:01;11.10;99.90
24800;DHT22;12897;50.812;4.430;2023-12-29T15:38:34;11.10;99.90
24800;DHT22;12897;50.812;4.430;2023-12-29T15:41:02;11.10;99.90
24800;DHT22;12897;50.812;4.430;2023-12-29T15:43:29;11.00;99.90
24800;DHT22;12897;50.812;4.430;2023-12-29T15:45:57;11.00;99.90
24800;DHT22;12897;50.812;4.430;2023-12-29T15:48:24;11.00;99.90
24800;DHT22;12897;50.812;4.430;2023-12-29T15:50:52;11.00;99.90
24800;DHT22;12897;50.812;4.430;2023-12-29T15:53:19;11.00;99.90
24800;DHT22;12897;50.812;4.430;2023-12-29T15:55:47;11.00;99.90
24800;DHT22;12897;50.812;4.430;2023-12-29T15:58:14;10.90;99.90